sensor_id;sensor_type;location;lat;lon;timestamp;pressure;altitude;pressure_sealevel;temperature;humidity
72570;BME280;60594;50.204;8.844;2022-12-10T00:01:58;99064.72;;;-0.20;95.46
72570;BME280;60594;50.204;8.844;2022-12-10T00:04:24;99061.94;;;-0.17;95.06
72570;BME280;60594;50.204;8.844;2022-12-10T00:06:51;99053.31;;;-0.19;94.90
72570;BME280;60594;50.204;8.844;2022-12-10T00:09:19;99058.63;;;-0.36;95.80
72570;BME280;60594;50.204;8.844;2022-12-10T00:11:46;99067.72;;;-0.43;96.79
72570;BME280;60594;50.204;8.844;2022-12-10T00:14:13;99066.72;;;-0.25;95.17
72570;BME280;60594;50.204;8.844;2022-12-10T00:16:41;99074.59;;;-0.25;95.27
72570;BME280;60594;50.204;8.844;2022-12-10T00:19:07;99067.19;;;-0.17;94.74
72570;BME280;60594;50.204;8.844;2022-12-10T00:21:35;99073.25;;;-0.16;94.98
72570;BME280;60594;50.204;8.844;2022-12-10T00:24:02;99074.84;;;-0.14;94.19
72570;BME280;60594;50.204;8.844;2022-12-10T00:26:35;99079.19;;;-0.13;93.19
72570;BME280;60594;50.204;8.844;2022-12-10T00:29:03;99065.75;;;-0.22;93.93
72570;BME280;60594;50.204;8.844;2022-12-10T00:31:31;99066.25;;;-0.16;94.74
72570;BME280;60594;50.204;8.844;2022-12-10T00:34:00;99071.41;;;-0.14;92.73
72570;BME280;60594;50.204;8.844;2022-12-10T00:36:39;99069.44;;;-0.11;93.34
72570;BME280;60594;50.204;8.844;2022-12-10T00:39:09;99065.41;;;-0.16;92.12
72570;BME280;60594;50.204;8.844;2022-12-10T00:41:36;99065.63;;;-0.21;92.67
72570;BME280;60594;50.204;8.844;2022-12-10T00:44:02;99072.41;;;-0.17;92.84
72570;BME280;60594;50.204;8.844;2022-12-10T00:46:29;99059.81;;;-0.26;92.22
72570;BME280;60594;50.204;8.844;2022-12-10T00:48:55;99053.31;;;-0.34;92.57
72570;BME280;60594;50.204;8.844;2022-12-10T00:51:24;99068.34;;;-0.38;92.94
72570;BME280;60594;50.204;8.844;2022-12-10T00:53:52;99071.13;;;-0.41;93.25
72570;BME280;60594;50.204;8.844;2022-12-10T00:56:22;99067.06;;;-0.46;93.73
72570;BME280;60594;50.204;8.844;2022-12-10T00:58:48;99063.53;;;-0.45;93.12
72570;BME280;60594;50.204;8.844;2022-12-10T01:01:20;99063.59;;;-0.47;93.75
72570;BME280;60594;50.204;8.844;2022-12-10T01:03:48;99067.06;;;-0.46;93.80
72570;BME280;60594;50.204;8.844;2022-12-10T01:06:16;99063.78;;;-0.50;93.76
72570;BME280;60594;50.204;8.844;2022-12-10T01:08:44;99069.69;;;-0.46;92.65
72570;BME280;60594;50.204;8.844;2022-12-10T01:11:13;99067.22;;;-0.49;93.03
72570;BME280;60594;50.204;8.844;2022-12-10T01:13:40;99071.78;;;-0.53;93.29
72570;BME280;60594;50.204;8.844;2022-12-10T01:16:08;99076.75;;;-0.64;92.96
72570;BME280;60594;50.204;8.844;2022-12-10T01:18:35;99083.47;;;-0.75;94.21
72570;BME280;60594;50.204;8.844;2022-12-10T01:21:04;99080.41;;;-0.83;94.90
72570;BME280;60594;50.204;8.844;2022-12-10T01:23:32;99075.03;;;-0.80;94.46
72570;BME280;60594;50.204;8.844;2022-12-10T01:26:04;99081.94;;;-0.79;94.56
72570;BME280;60594;50.204;8.844;2022-12-10T01:28:33;99081.28;;;-0.83;94.60
72570;BME280;60594;50.204;8.844;2022-12-10T01:31:10;99083.97;;;-0.84;94.40
72570;BME280;60594;50.204;8.844;2022-12-10T01:33:38;99097.03;;;-0.84;94.59
72570;BME280;60594;50.204;8.844;2022-12-10T01:36:11;99095.25;;;-0.84;94.91
72570;BME280;60594;50.204;8.844;2022-12-10T01:38:38;99098.88;;;-0.86;95.04
72570;BME280;60594;50.204;8.844;2022-12-10T01:41:07;99096.41;;;-0.89;95.05
72570;BME280;60594;50.204;8.844;2022-12-10T01:43:58;99098.13;;;-0.88;94.30
72570;BME280;60594;50.204;8.844;2022-12-10T01:46:28;99110.13;;;-0.84;94.99
72570;BME280;60594;50.204;8.844;2022-12-10T01:48:57;99101.47;;;-0.86;94.60
72570;BME280;60594;50.204;8.844;2022-12-10T01:51:27;99108.88;;;-0.77;94.26
72570;BME280;60594;50.204;8.844;2022-12-10T01:53:54;99104.38;;;-0.75;93.88
72570;BME280;60594;50.204;8.844;2022-12-10T01:56:21;99108.88;;;-0.77;93.98
72570;BME280;60594;50.204;8.844;2022-12-10T01:58:50;99113.25;;;-0.78;94.07
72570;BME280;60594;50.204;8.844;2022-12-10T02:01:28;99111.63;;;-0.80;94.50
72570;BME280;60594;50.204;8.844;2022-12-10T02:04:39;99122.84;;;-0.78;94.16
72570;BME280;60594;50.204;8.844;2022-12-10T02:12:57;99109.19;;;-0.83;93.78
72570;BME280;60594;50.204;8.844;2022-12-10T02:15:31;99111.94;;;-0.86;93.81
72570;BME280;60594;50.204;8.844;2022-12-10T02:18:09;99107.41;;;-0.83;93.84
72570;BME280;60594;50.204;8.844;2022-12-10T02:20:44;99113.47;;;-0.82;93.45
72570;BME280;60594;50.204;8.844;2022-12-10T02:23:18;99104.88;;;-0.84;93.27
72570;BME280;60594;50.204;8.844;2022-12-10T02:31:14;99097.19;;;-0.87;93.60
72570;BME280;60594;50.204;8.844;2022-12-10T02:33:48;99095.50;;;-0.88;93.50
72570;BME280;60594;50.204;8.844;2022-12-10T02:36:16;99087.97;;;-0.94;94.51
72570;BME280;60594;50.204;8.844;2022-12-10T02:38:44;99090.66;;;-0.96;94.18
72570;BME280;60594;50.204;8.844;2022-12-10T02:41:36;99086.38;;;-0.97;94.66
72570;BME280;60594;50.204;8.844;2022-12-10T02:44:07;99096.81;;;-0.97;94.62
72570;BME280;60594;50.204;8.844;2022-12-10T02:46:36;99097.66;;;-0.96;94.60
72570;BME280;60594;50.204;8.844;2022-12-10T02:49:07;99090.72;;;-0.97;94.64
72570;BME280;60594;50.204;8.844;2022-12-10T02:51:35;99100.03;;;-0.92;95.07
72570;BME280;60594;50.204;8.844;2022-12-10T02:54:05;99093.78;;;-0.89;94.80
72570;BME280;60594;50.204;8.844;2022-12-10T02:56:42;99096.25;;;-0.86;94.00
72570;BME280;60594;50.204;8.844;2022-12-10T02:59:16;99094.81;;;-0.92;94.44
72570;BME280;60594;50.204;8.844;2022-12-10T03:04:33;99101.63;;;-0.89;95.23
72570;BME280;60594;50.204;8.844;2022-12-10T03:07:08;99108.25;;;-0.82;93.69
72570;BME280;60594;50.204;8.844;2022-12-10T03:09:45;99101.94;;;-0.78;93.80
72570;BME280;60594;50.204;8.844;2022-12-10T03:12:41;99094.94;;;-0.78;93.67
72570;BME280;60594;50.204;8.844;2022-12-10T03:15:11;99096.47;;;-0.74;93.48
72570;BME280;60594;50.204;8.844;2022-12-10T03:17:40;99098.34;;;-0.76;94.38
72570;BME280;60594;50.204;8.844;2022-12-10T03:20:11;99092.84;;;-0.71;93.95
72570;BME280;60594;50.204;8.844;2022-12-10T03:22:41;99104.81;;;-0.67;93.44
72570;BME280;60594;50.204;8.844;2022-12-10T03:25:10;99096.38;;;-0.72;94.07
72570;BME280;60594;50.204;8.844;2022-12-10T03:27:40;99095.78;;;-0.77;94.37
72570;BME280;60594;50.204;8.844;2022-12-10T03:30:07;99094.34;;;-0.83;94.23
72570;BME280;60594;50.204;8.844;2022-12-10T03:32:34;99086.50;;;-0.83;94.74
72570;BME280;60594;50.204;8.844;2022-12-10T03:35:01;99083.53;;;-0.77;94.13
72570;BME280;60594;50.204;8.844;2022-12-10T03:37:29;99084.16;;;-0.72;93.90
72570;BME280;60594;50.204;8.844;2022-12-10T03:39:56;99089.28;;;-0.70;93.77
72570;BME280;60594;50.204;8.844;2022-12-10T03:42:23;99080.78;;;-0.74;94.11
72570;BME280;60594;50.204;8.844;2022-12-10T03:44:51;99086.00;;;-0.74;94.10
72570;BME280;60594;50.204;8.844;2022-12-10T03:47:18;99079.16;;;-0.76;93.88
72570;BME280;60594;50.204;8.844;2022-12-10T03:49:45;99085.16;;;-0.74;94.84
72570;BME280;60594;50.204;8.844;2022-12-10T03:52:12;99081.38;;;-0.69;94.18
72570;BME280;60594;50.204;8.844;2022-12-10T03:54:38;99090.38;;;-0.74;94.43
72570;BME280;60594;50.204;8.844;2022-12-10T03:57:04;99081.44;;;-0.70;94.50
72570;BME280;60594;50.204;8.844;2022-12-10T03:59:31;99088.03;;;-0.63;94.29
72570;BME280;60594;50.204;8.844;2022-12-10T04:01:57;99084.19;;;-0.56;93.66
72570;BME280;60594;50.204;8.844;2022-12-10T04:04:24;99080.66;;;-0.55;93.20
72570;BME280;60594;50.204;8.844;2022-12-10T04:06:50;99084.09;;;-0.55;93.59
72570;BME280;60594;50.204;8.844;2022-12-10T04:09:17;99087.56;;;-0.54;93.68
72570;BME280;60594;50.204;8.844;2022-12-10T04:11:44;99092.38;;;-0.47;92.98
72570;BME280;60594;50.204;8.844;2022-12-10T04:14:11;99095.84;;;-0.46;92.20
72570;BME280;60594;50.204;8.844;2022-12-10T04:16:57;99089.94;;;-0.50;92.78
72570;BME280;60594;50.204;8.844;2022-12-10T04:19:24;99088.59;;;-0.57;92.93
72570;BME280;60594;50.204;8.844;2022-12-10T04:21:51;99088.50;;;-0.55;93.38
72570;BME280;60594;50.204;8.844;2022-12-10T04:24:36;99096.66;;;-0.61;93.60
72570;BME280;60594;50.204;8.844;2022-12-10T04:27:28;99090.34;;;-0.57;93.53
72570;BME280;60594;50.204;8.844;2022-12-10T04:29:56;99097.53;;;-0.61;93.44
72570;BME280;60594;50.204;8.844;2022-12-10T04:32:25;99098.44;;;-0.62;93.72
72570;BME280;60594;50.204;8.844;2022-12-10T04:34:52;99096.66;;;-0.61;93.93
72570;BME280;60594;50.204;8.844;2022-12-10T04:37:19;99098.03;;;-0.54;93.29
72570;BME280;60594;50.204;8.844;2022-12-10T04:39:47;99105.25;;;-0.59;94.17
72570;BME280;60594;50.204;8.844;2022-12-10T04:42:14;99087.22;;;-0.64;93.88
72570;BME280;60594;50.204;8.844;2022-12-10T04:44:41;99103.28;;;-0.54;94.32
72570;BME280;60594;50.204;8.844;2022-12-10T04:47:08;99086.88;;;-0.58;94.15
72570;BME280;60594;50.204;8.844;2022-12-10T04:49:35;99080.53;;;-0.54;94.03
72570;BME280;60594;50.204;8.844;2022-12-10T04:52:02;99088.00;;;-0.46;93.64
72570;BME280;60594;50.204;8.844;2022-12-10T04:54:29;99093.16;;;-0.45;93.94
72570;BME280;60594;50.204;8.844;2022-12-10T04:56:56;99095.06;;;-0.48;93.50
72570;BME280;60594;50.204;8.844;2022-12-10T04:59:22;99089.84;;;-0.48;93.56
72570;BME280;60594;50.204;8.844;2022-12-10T05:01:48;99095.78;;;-0.45;93.83
72570;BME280;60594;50.204;8.844;2022-12-10T05:04:17;99093.47;;;-0.51;94.11
72570;BME280;60594;50.204;8.844;2022-12-10T05:06:44;99101.00;;;-0.45;94.14
72570;BME280;60594;50.204;8.844;2022-12-10T05:09:11;99087.16;;;-0.47;93.61
72570;BME280;60594;50.204;8.844;2022-12-10T05:11:38;99094.56;;;-0.55;95.69
72570;BME280;60594;50.204;8.844;2022-12-10T05:14:05;99092.19;;;-0.59;96.01
72570;BME280;60594;50.204;8.844;2022-12-10T05:16:32;99097.25;;;-0.56;95.70
72570;BME280;60594;50.204;8.844;2022-12-10T05:18:59;99110.63;;;-0.45;95.15
72570;BME280;60594;50.204;8.844;2022-12-10T05:21:27;99113.06;;;-0.42;94.46
72570;BME280;60594;50.204;8.844;2022-12-10T05:24:15;99105.31;;;-0.44;94.41
72570;BME280;60594;50.204;8.844;2022-12-10T05:26:42;99102.59;;;-0.42;94.56
72570;BME280;60594;50.204;8.844;2022-12-10T05:29:09;99102.53;;;-0.41;94.57
72570;BME280;60594;50.204;8.844;2022-12-10T05:31:35;99109.44;;;-0.40;94.62
72570;BME280;60594;50.204;8.844;2022-12-10T05:34:02;99111.91;;;-0.37;94.16
72570;BME280;60594;50.204;8.844;2022-12-10T05:36:31;99098.38;;;-0.45;94.69
72570;BME280;60594;50.204;8.844;2022-12-10T05:38:58;99113.78;;;-0.39;94.10
72570;BME280;60594;50.204;8.844;2022-12-10T05:41:30;99111.22;;;-0.40;94.43
72570;BME280;60594;50.204;8.844;2022-12-10T05:43:59;99117.22;;;-0.38;94.55
72570;BME280;60594;50.204;8.844;2022-12-10T05:46:29;99123.38;;;-0.39;94.56
72570;BME280;60594;50.204;8.844;2022-12-10T05:48:56;99124.81;;;-0.34;93.63
72570;BME280;60594;50.204;8.844;2022-12-10T05:51:26;99123.31;;;-0.38;95.22
72570;BME280;60594;50.204;8.844;2022-12-10T05:53:54;99130.06;;;-0.34;95.09
72570;BME280;60594;50.204;8.844;2022-12-10T05:56:22;99116.97;;;-0.34;93.86
72570;BME280;60594;50.204;8.844;2022-12-10T05:58:53;99121.38;;;-0.19;93.75
72570;BME280;60594;50.204;8.844;2022-12-10T06:01:24;99124.41;;;-0.11;93.31
72570;BME280;60594;50.204;8.844;2022-12-10T06:03:52;99125.28;;;-0.10;93.83
72570;BME280;60594;50.204;8.844;2022-12-10T06:06:22;99134.72;;;-0.08;93.47
72570;BME280;60594;50.204;8.844;2022-12-10T06:08:50;99135.59;;;-0.07;93.63
72570;BME280;60594;50.204;8.844;2022-12-10T06:11:17;99124.31;;;-0.25;94.18
72570;BME280;60594;50.204;8.844;2022-12-10T06:13:44;99134.91;;;-0.11;93.13
72570;BME280;60594;50.204;8.844;2022-12-10T06:16:11;99127.19;;;-0.14;93.64
72570;BME280;60594;50.204;8.844;2022-12-10T06:18:39;99138.53;;;-0.13;93.31
72570;BME280;60594;50.204;8.844;2022-12-10T06:21:10;99146.38;;;-0.13;94.20
72570;BME280;60594;50.204;8.844;2022-12-10T06:23:38;99143.69;;;-0.12;93.39
72570;BME280;60594;50.204;8.844;2022-12-10T06:26:10;99155.16;;;-0.14;93.80
72570;BME280;60594;50.204;8.844;2022-12-10T06:28:37;99144.28;;;-0.07;94.10
72570;BME280;60594;50.204;8.844;2022-12-10T06:31:04;99149.09;;;0.01;93.09
72570;BME280;60594;50.204;8.844;2022-12-10T06:33:31;99139.38;;;0.03;93.04
72570;BME280;60594;50.204;8.844;2022-12-10T06:35:57;99143.78;;;0.03;92.09
72570;BME280;60594;50.204;8.844;2022-12-10T06:38:25;99156.19;;;-0.01;93.30
72570;BME280;60594;50.204;8.844;2022-12-10T06:40:51;99152.81;;;-0.03;93.58
72570;BME280;60594;50.204;8.844;2022-12-10T06:43:18;99153.06;;;-0.08;95.23
72570;BME280;60594;50.204;8.844;2022-12-10T06:45:45;99153.38;;;-0.14;94.43
72570;BME280;60594;50.204;8.844;2022-12-10T06:48:12;99164.53;;;0.05;92.71
72570;BME280;60594;50.204;8.844;2022-12-10T06:50:38;99163.28;;;0.13;92.79
72570;BME280;60594;50.204;8.844;2022-12-10T06:53:04;99163.81;;;0.19;92.53
72570;BME280;60594;50.204;8.844;2022-12-10T06:55:31;99167.00;;;0.24;93.05
72570;BME280;60594;50.204;8.844;2022-12-10T06:57:57;99170.66;;;0.22;92.16
72570;BME280;60594;50.204;8.844;2022-12-10T07:00:23;99174.00;;;0.24;92.35
72570;BME280;60594;50.204;8.844;2022-12-10T07:02:50;99169.06;;;0.19;92.28
72570;BME280;60594;50.204;8.844;2022-12-10T07:05:16;99172.78;;;0.15;91.78
72570;BME280;60594;50.204;8.844;2022-12-10T07:07:43;99177.91;;;0.17;93.42
72570;BME280;60594;50.204;8.844;2022-12-10T07:10:09;99170.31;;;0.12;93.23
72570;BME280;60594;50.204;8.844;2022-12-10T07:12:36;99174.53;;;0.15;92.64
72570;BME280;60594;50.204;8.844;2022-12-10T07:15:02;99169.97;;;0.18;92.36
72570;BME280;60594;50.204;8.844;2022-12-10T07:17:31;99179.25;;;0.24;91.63
72570;BME280;60594;50.204;8.844;2022-12-10T07:19:57;99185.19;;;0.27;92.68
72570;BME280;60594;50.204;8.844;2022-12-10T07:22:24;99193.03;;;0.27;92.00
72570;BME280;60594;50.204;8.844;2022-12-10T07:24:50;99192.97;;;0.29;92.72
72570;BME280;60594;50.204;8.844;2022-12-10T07:27:17;99192.63;;;0.19;93.29
72570;BME280;60594;50.204;8.844;2022-12-10T07:29:44;99200.03;;;0.27;93.06
72570;BME280;60594;50.204;8.844;2022-12-10T07:32:11;99192.09;;;0.28;92.43
72570;BME280;60594;50.204;8.844;2022-12-10T07:34:37;99196.59;;;0.26;91.65
72570;BME280;60594;50.204;8.844;2022-12-10T07:37:03;99193.22;;;0.24;92.92
72570;BME280;60594;50.204;8.844;2022-12-10T07:39:30;99187.13;;;0.24;92.12
72570;BME280;60594;50.204;8.844;2022-12-10T07:41:56;99196.41;;;0.29;92.73
72570;BME280;60594;50.204;8.844;2022-12-10T07:44:24;99205.72;;;0.35;92.38
72570;BME280;60594;50.204;8.844;2022-12-10T07:46:53;99215.75;;;0.27;94.09
72570;BME280;60594;50.204;8.844;2022-12-10T07:49:19;99204.28;;;0.29;93.30
72570;BME280;60594;50.204;8.844;2022-12-10T07:51:50;99207.16;;;0.40;92.41
72570;BME280;60594;50.204;8.844;2022-12-10T07:54:17;99202.75;;;0.41;91.79
72570;BME280;60594;50.204;8.844;2022-12-10T07:56:44;99205.88;;;0.47;91.13
72570;BME280;60594;50.204;8.844;2022-12-10T07:59:10;99211.81;;;0.35;91.06
72570;BME280;60594;50.204;8.844;2022-12-10T08:01:38;99211.16;;;0.32;91.32
72570;BME280;60594;50.204;8.844;2022-12-10T08:04:04;99201.84;;;0.26;91.61
72570;BME280;60594;50.204;8.844;2022-12-10T08:06:31;99211.22;;;0.30;91.61
72570;BME280;60594;50.204;8.844;2022-12-10T08:08:58;99215.03;;;0.25;92.08
72570;BME280;60594;50.204;8.844;2022-12-10T08:11:26;99210.03;;;0.20;92.02
72570;BME280;60594;50.204;8.844;2022-12-10T08:13:52;99217.09;;;0.18;93.17
72570;BME280;60594;50.204;8.844;2022-12-10T08:16:21;99224.06;;;0.19;92.54
72570;BME280;60594;50.204;8.844;2022-12-10T08:18:55;99228.28;;;0.22;92.63
72570;BME280;60594;50.204;8.844;2022-12-10T08:21:25;99220.16;;;0.11;92.82
72570;BME280;60594;50.204;8.844;2022-12-10T08:23:53;99223.28;;;0.17;92.59
72570;BME280;60594;50.204;8.844;2022-12-10T08:26:25;99226.59;;;0.21;92.34
72570;BME280;60594;50.204;8.844;2022-12-10T08:28:54;99233.59;;;0.20;92.36
72570;BME280;60594;50.204;8.844;2022-12-10T08:31:22;99231.13;;;0.17;91.75
72570;BME280;60594;50.204;8.844;2022-12-10T08:33:48;99227.84;;;0.14;92.38
72570;BME280;60594;50.204;8.844;2022-12-10T08:36:16;99228.25;;;0.06;92.41
72570;BME280;60594;50.204;8.844;2022-12-10T08:38:43;99237.78;;;0.07;93.15
72570;BME280;60594;50.204;8.844;2022-12-10T08:41:16;99238.22;;;-0.01;93.62
72570;BME280;60594;50.204;8.844;2022-12-10T08:43:43;99244.66;;;0.10;93.74
72570;BME280;60594;50.204;8.844;2022-12-10T08:46:12;99228.16;;;0.08;92.20
72570;BME280;60594;50.204;8.844;2022-12-10T08:48:41;99253.63;;;0.21;92.37
72570;BME280;60594;50.204;8.844;2022-12-10T08:51:08;99239.31;;;0.11;93.83
72570;BME280;60594;50.204;8.844;2022-12-10T08:53:36;99254.63;;;0.19;93.61
72570;BME280;60594;50.204;8.844;2022-12-10T08:56:03;99259.13;;;0.32;93.06
72570;BME280;60594;50.204;8.844;2022-12-10T08:58:32;99264.63;;;0.43;92.52
72570;BME280;60594;50.204;8.844;2022-12-10T09:00:59;99256.03;;;0.41;92.20
72570;BME280;60594;50.204;8.844;2022-12-10T09:03:27;99267.34;;;0.42;91.67
72570;BME280;60594;50.204;8.844;2022-12-10T09:05:53;99259.75;;;0.37;92.89
72570;BME280;60594;50.204;8.844;2022-12-10T09:08:20;99269.94;;;0.42;93.04
72570;BME280;60594;50.204;8.844;2022-12-10T09:10:46;99260.25;;;0.44;92.65
72570;BME280;60594;50.204;8.844;2022-12-10T09:13:12;99265.50;;;0.44;92.01
72570;BME280;60594;50.204;8.844;2022-12-10T09:15:39;99249.59;;;0.31;92.30
72570;BME280;60594;50.204;8.844;2022-12-10T09:18:05;99268.28;;;0.41;92.28
72570;BME280;60594;50.204;8.844;2022-12-10T09:20:32;99270.72;;;0.44;94.13
72570;BME280;60594;50.204;8.844;2022-12-10T09:22:58;99274.34;;;0.57;93.54
72570;BME280;60594;50.204;8.844;2022-12-10T09:25:25;99279.78;;;0.69;91.76
72570;BME280;60594;50.204;8.844;2022-12-10T09:27:51;99273.19;;;0.78;91.75
72570;BME280;60594;50.204;8.844;2022-12-10T09:30:18;99276.91;;;0.89;92.06
72570;BME280;60594;50.204;8.844;2022-12-10T09:32:44;99272.16;;;0.96;90.38
72570;BME280;60594;50.204;8.844;2022-12-10T09:35:10;99271.66;;;0.89;89.81
72570;BME280;60594;50.204;8.844;2022-12-10T09:37:37;99270.28;;;0.98;90.80
72570;BME280;60594;50.204;8.844;2022-12-10T09:40:03;99276.69;;;1.08;90.34
72570;BME280;60594;50.204;8.844;2022-12-10T09:42:54;99268.19;;;1.04;90.85
72570;BME280;60594;50.204;8.844;2022-12-10T09:45:27;99282.19;;;1.19;90.72
72570;BME280;60594;50.204;8.844;2022-12-10T09:50:55;99278.06;;;1.15;89.32
72570;BME280;60594;50.204;8.844;2022-12-10T09:53:26;99269.22;;;1.02;89.95
72570;BME280;60594;50.204;8.844;2022-12-10T09:55:54;99273.25;;;0.92;91.73
72570;BME280;60594;50.204;8.844;2022-12-10T09:58:23;99272.16;;;0.96;90.41
72570;BME280;60594;50.204;8.844;2022-12-10T10:01:02;99264.47;;;0.93;92.10
72570;BME280;60594;50.204;8.844;2022-12-10T10:03:37;99268.19;;;1.04;90.34
72570;BME280;60594;50.204;8.844;2022-12-10T10:06:04;99267.50;;;1.01;90.62
72570;BME280;60594;50.204;8.844;2022-12-10T10:10:59;99255.81;;;1.06;90.81
72570;BME280;60594;50.204;8.844;2022-12-10T10:13:38;99260.56;;;1.00;90.58
72570;BME280;60594;50.204;8.844;2022-12-10T10:16:31;99268.44;;;1.00;90.62
72570;BME280;60594;50.204;8.844;2022-12-10T10:19:00;99261.44;;;0.85;91.59
72570;BME280;60594;50.204;8.844;2022-12-10T10:21:35;99271.31;;;0.95;90.31
72570;BME280;60594;50.204;8.844;2022-12-10T10:24:03;99270.28;;;0.98;90.39
72570;BME280;60594;50.204;8.844;2022-12-10T10:26:32;99275.19;;;1.04;90.62
72570;BME280;60594;50.204;8.844;2022-12-10T10:29:02;99278.31;;;1.10;90.59
72570;BME280;60594;50.204;8.844;2022-12-10T10:31:34;99275.59;;;1.12;91.48
72570;BME280;60594;50.204;8.844;2022-12-10T10:34:05;99267.31;;;1.19;90.32
72570;BME280;60594;50.204;8.844;2022-12-10T10:36:37;99265.78;;;1.15;89.95
72570;BME280;60594;50.204;8.844;2022-12-10T10:39:31;99277.31;;;1.13;88.91
72570;BME280;60594;50.204;8.844;2022-12-10T10:41:58;99273.13;;;1.09;89.61
72570;BME280;60594;50.204;8.844;2022-12-10T10:44:28;99271.81;;;1.02;88.55
72570;BME280;60594;50.204;8.844;2022-12-10T10:47:00;99266.34;;;0.91;89.23
72570;BME280;60594;50.204;8.844;2022-12-10T10:49:32;99267.34;;;0.88;89.71
72570;BME280;60594;50.204;8.844;2022-12-10T10:52:11;99275.97;;;0.90;90.17
72570;BME280;60594;50.204;8.844;2022-12-10T10:54:41;99266.75;;;0.83;89.18
72570;BME280;60594;50.204;8.844;2022-12-10T10:57:36;99264.03;;;0.69;90.72
72570;BME280;60594;50.204;8.844;2022-12-10T11:02:40;99282.06;;;0.75;90.08
72570;BME280;60594;50.204;8.844;2022-12-10T11:05:29;99282.56;;;0.82;90.38
72570;BME280;60594;50.204;8.844;2022-12-10T11:08:02;99283.25;;;0.85;91.67
72570;BME280;60594;50.204;8.844;2022-12-10T11:10:29;99267.34;;;0.88;89.11
72570;BME280;60594;50.204;8.844;2022-12-10T11:13:05;99274.09;;;0.92;89.71
72570;BME280;60594;50.204;8.844;2022-12-10T11:15:40;99279.78;;;1.00;92.78
72570;BME280;60594;50.204;8.844;2022-12-10T11:18:24;99272.47;;;1.05;89.25
72570;BME280;60594;50.204;8.844;2022-12-10T11:21:15;99280.28;;;1.07;90.63
72570;BME280;60594;50.204;8.844;2022-12-10T11:23:48;99273.59;;;1.01;89.53
72570;BME280;60594;50.204;8.844;2022-12-10T11:32:06;99271.38;;;1.09;90.72
72570;BME280;60594;50.204;8.844;2022-12-10T11:35:01;99268.59;;;1.12;87.93
72570;BME280;60594;50.204;8.844;2022-12-10T11:37:33;99271.59;;;1.20;88.75
72570;BME280;60594;50.204;8.844;2022-12-10T11:45:49;99278.28;;;1.26;87.22
72570;BME280;60594;50.204;8.844;2022-12-10T11:48:46;99276.38;;;1.14;87.03
72570;BME280;60594;50.204;8.844;2022-12-10T11:54:03;99281.94;;;1.08;88.06
72570;BME280;60594;50.204;8.844;2022-12-10T11:56:40;99278.66;;;1.04;89.07
72570;BME280;60594;50.204;8.844;2022-12-10T11:59:32;99276.13;;;1.03;89.62
72570;BME280;60594;50.204;8.844;2022-12-10T12:15:36;99294.88;;;1.26;84.97
72570;BME280;60594;50.204;8.844;2022-12-10T12:21:13;99290.25;;;1.45;86.92
72570;BME280;60594;50.204;8.844;2022-12-10T12:26:20;99290.78;;;1.66;86.71
72570;BME280;60594;50.204;8.844;2022-12-10T12:31:43;99287.16;;;1.82;84.22
72570;BME280;60594;50.204;8.844;2022-12-10T12:34:24;99286.81;;;1.88;83.06
72570;BME280;60594;50.204;8.844;2022-12-10T12:36:53;99286.50;;;1.93;82.31
72570;BME280;60594;50.204;8.844;2022-12-10T12:39:38;99285.69;;;1.92;81.99
72570;BME280;60594;50.204;8.844;2022-12-10T12:42:19;99287.00;;;1.85;83.42
72570;BME280;60594;50.204;8.844;2022-12-10T12:45:10;99286.41;;;1.80;84.05
72570;BME280;60594;50.204;8.844;2022-12-10T12:48:11;99287.09;;;1.84;83.96
72570;BME280;60594;50.204;8.844;2022-12-10T12:50:45;99292.34;;;1.84;84.82
72570;BME280;60594;50.204;8.844;2022-12-10T12:53:14;99288.22;;;1.94;83.14
72570;BME280;60594;50.204;8.844;2022-12-10T12:55:47;99289.25;;;2.05;81.46
72570;BME280;60594;50.204;8.844;2022-12-10T12:58:30;99297.06;;;2.07;83.25
72570;BME280;60594;50.204;8.844;2022-12-10T13:01:18;99300.91;;;2.15;82.79
72570;BME280;60594;50.204;8.844;2022-12-10T13:03:46;99298.56;;;2.25;80.32
72570;BME280;60594;50.204;8.844;2022-12-10T13:06:24;99297.72;;;2.24;79.31
72570;BME280;60594;50.204;8.844;2022-12-10T13:09:25;99303.44;;;2.17;80.43
72570;BME280;60594;50.204;8.844;2022-12-10T13:14:33;99301.84;;;2.28;82.48
72570;BME280;60594;50.204;8.844;2022-12-10T13:34:19;99310.22;;;2.35;79.21
72570;BME280;60594;50.204;8.844;2022-12-10T13:39:22;99329.63;;;2.18;79.33
72570;BME280;60594;50.204;8.844;2022-12-10T13:50:35;99325.88;;;1.79;81.29
72570;BME280;60594;50.204;8.844;2022-12-10T13:58:36;99349.66;;;1.91;79.82
72570;BME280;60594;50.204;8.844;2022-12-10T14:04:00;99358.56;;;1.89;80.31
72570;BME280;60594;50.204;8.844;2022-12-10T14:06:34;99356.66;;;1.77;80.33
72570;BME280;60594;50.204;8.844;2022-12-10T14:09:11;99366.38;;;1.75;80.59
72570;BME280;60594;50.204;8.844;2022-12-10T14:11:42;99362.63;;;1.65;80.64
72570;BME280;60594;50.204;8.844;2022-12-10T14:14:23;99372.69;;;1.57;81.96
72570;BME280;60594;50.204;8.844;2022-12-10T14:16:51;99365.34;;;1.63;80.98
72570;BME280;60594;50.204;8.844;2022-12-10T14:19:18;99373.88;;;1.51;80.22
72570;BME280;60594;50.204;8.844;2022-12-10T14:21:46;99368.44;;;1.40;80.49
72570;BME280;60594;50.204;8.844;2022-12-10T14:27:02;99379.34;;;1.33;81.94
72570;BME280;60594;50.204;8.844;2022-12-10T14:29:30;99381.19;;;1.31;81.58
72570;BME280;60594;50.204;8.844;2022-12-10T14:31:58;99381.19;;;1.31;81.54
72570;BME280;60594;50.204;8.844;2022-12-10T14:34:27;99381.19;;;1.31;81.54
72570;BME280;60594;50.204;8.844;2022-12-10T14:36:58;99390.25;;;1.25;81.78
72570;BME280;60594;50.204;8.844;2022-12-10T14:39:31;99387.06;;;1.20;81.97
72570;BME280;60594;50.204;8.844;2022-12-10T14:42:05;99389.50;;;1.23;82.82
72570;BME280;60594;50.204;8.844;2022-12-10T14:44:34;99392.88;;;1.25;81.99
72570;BME280;60594;50.204;8.844;2022-12-10T14:47:18;99394.75;;;1.23;82.53
72570;BME280;60594;50.204;8.844;2022-12-10T14:49:51;99398.31;;;1.22;81.70
72570;BME280;60594;50.204;8.844;2022-12-10T14:52:24;99389.19;;;1.14;81.96
72570;BME280;60594;50.204;8.844;2022-12-10T14:54:52;99405.50;;;1.19;81.93
72570;BME280;60594;50.204;8.844;2022-12-10T14:57:38;99406.19;;;1.22;82.45
72570;BME280;60594;50.204;8.844;2022-12-10T15:00:18;99416.06;;;1.17;82.34
72570;BME280;60594;50.204;8.844;2022-12-10T15:02:52;99415.34;;;1.15;81.64
72570;BME280;60594;50.204;8.844;2022-12-10T15:05:27;99420.91;;;1.09;82.81